Portada
METAR-TAF:

METAR-TAF

Aeroports :

Hancock, Michigan, Estats Units d'Amèrica

latitud: 47-10-06N, longitud: 088-29-20W, altitud: 334 m

Observació

L'informe es va fer fa 21 minuts, a les 16:53 UTC
Vent 4 kt del Sud-Oest
Temperatura -6°C
Humitat 79%
Pressió 1015 hPa
Visibilitat: 11.3 km
Cel clar

METAR: KCMX 101653Z AUTO 22004KT 7SM CLR M06/M09 A2996 RMK AO2 SLP162 T10561094

Hora: 12:14 (17:14 UTC)

Pronòstic

L'informe es va fer fa 5 hores i 48 minuts, a les 11:26 UTC
Pronòstic vàlid del 10 a les 12 UTC al 11 a les 12 UTC
Vent 9 kt del Oest/Sud-Oest
Visibilitat: 10 km
Cel cobert a una alçada de 1000 ft
A partir de les 10 a les 1800 UTC
Vent 10 kt del Oest/Sud-Oest
Visibilitat: 10 km
Núvols disperses a una alçada de 1300 ft
Cel ennuvolat a una alçada de 20000 ft
A partir de les 11 a les 0000 UTC
Vent 7 kt del Nord-Oest
Visibilitat: 10 km
Cel cobert a una alçada de 1100 ft

TAF: KCMX 101126Z 1012/1112 25009KT P6SM OVC010 FM101800 25010KT P6SM SCT013 BKN200 FM110000 31007KT P6SM OVC011

Observacions i pronòstics meteorològics de més de 4000 aeroports (METAR i TAF).

Les estacions disponibles són els punts grocs i vermells al mapa.

Posi el ratolí al punt desitjat per veure el nom de l'estació.

Feu clic per veure les observacions i els pronòstics meteorològics.

Per canviar el mapa: feu clic els botons verds amb una creu de color negre per apropar; al botó verd amb un guió per allunyar la imatge; o en les fletxes verdes per a mapes adjacents.


METAR-TAF: